Time;durP1;ratioP1;P1;durP2;ratioP2;P2;SDS_P1;SDS_P2;PMS_P1;PMS_P2;Temp;Humidity;BMP_temperature;BMP_pressure;BME280_temperature;BME280_humidity;BME280_pressure;Samples;Min_cycle;Max_cycle;Signal;HPM_P1;HPM_P2
2021/12/17 00:00:18;;;;;;;48.22;19.35;;;;;;;;;;4811569;29;20610;-75
2021/12/17 00:05:45;;;;;;;63.63;21.98;;;;;;;;;;4830922;29;20898;-75
2021/12/17 00:08:13;;;;;;;64.68;22.13;;;;;;;;;;4805217;29;20503;-75
2021/12/17 00:10:41;;;;;;;72.53;22.02;;;;;;;;;;4813639;29;20622;-75
2021/12/17 00:13:09;;;;;;;69.78;21.83;;;;;;;;;;4810031;29;20133;-75
2021/12/17 00:15:37;;;;;;;60.85;20.70;;;;;;;;;;4807855;29;20052;-75
2021/12/17 00:18:14;;;;;;;39.63;18.20;;;;;;;;;;4810142;29;20123;-75
2021/12/17 00:40:12;;;;;;;35.92;16.83;;;;;;;;;;4808498;29;20057;-75
2021/12/17 00:48:38;;;;;;;45.47;17.50;;;;;;;;;;4780311;29;20326;-74
2021/12/17 00:54:01;;;;;;;45.28;18.27;;;;;;;;;;4779992;29;20079;-74
2021/12/17 00:56:28;;;;;;;47.40;18.55;;;;;;;;;;4780302;29;20462;-73
2021/12/17 00:58:56;;;;;;;47.67;18.80;;;;;;;;;;4779217;29;20509;-74
2021/12/17 01:01:25;;;;;;;59.08;18.95;;;;;;;;;;4785942;29;20043;-74
2021/12/17 01:03:54;;;;;;;37.83;16.58;;;;;;;;;;4780476;29;20437;-74
2021/12/17 01:06:23;;;;;;;49.70;17.90;;;;;;;;;;4780127;29;20489;-74
2021/12/17 01:08:50;;;;;;;45.50;18.13;;;;;;;;;;4779176;29;20071;-74
2021/12/17 01:11:21;;;;;;;46.55;17.98;;;;;;;;;;4804037;29;20050;-74
2021/12/17 01:13:58;;;;;;;54.63;19.20;;;;;;;;;;4784686;29;20051;-73
2021/12/17 01:16:54;;;;;;;43.20;17.30;;;;;;;;;;4784529;29;20055;-74
2021/12/17 01:22:58;;;;;;;41.92;16.38;;;;;;;;;;4784164;29;20043;-74
2021/12/17 01:42:20;;;;;;;60.33;19.15;;;;;;;;;;4786854;29;20067;-74
2021/12/17 01:44:48;;;;;;;52.63;18.23;;;;;;;;;;4784172;29;20043;-74
2021/12/17 01:47:15;;;;;;;49.95;18.95;;;;;;;;;;4781565;30;20104;-74
2021/12/17 02:00:20;;;;;;;60.10;20.08;;;;;;;;;;4784478;29;20113;-74
2021/12/17 02:02:51;;;;;;;55.67;19.50;;;;;;;;;;4786476;29;20493;-73
2021/12/17 02:05:29;;;;;;;44.25;18.05;;;;;;;;;;4783207;29;20099;-74
2021/12/17 02:07:58;;;;;;;54.22;17.67;;;;;;;;;;4781860;29;20039;-74
2021/12/17 02:28:44;;;;;;;39.88;16.75;;;;;;;;;;4783391;30;20052;-73
2021/12/17 02:32:45;;;;;;;45.20;16.83;;;;;;;;;;4785852;29;20122;-74
2021/12/17 02:37:45;;;;;;;44.05;15.93;;;;;;;;;;4769683;29;20075;-74
2021/12/17 02:46:30;;;;;;;49.58;17.75;;;;;;;;;;4769844;30;20051;-73
2021/12/17 02:48:57;;;;;;;39.47;16.20;;;;;;;;;;4785449;29;20406;-74
2021/12/17 02:51:25;;;;;;;49.00;16.00;;;;;;;;;;4777411;29;20619;-74
2021/12/17 02:53:54;;;;;;;51.47;17.02;;;;;;;;;;4778229;29;20444;-74
2021/12/17 02:56:21;;;;;;;46.45;17.02;;;;;;;;;;4777073;29;20051;-74
2021/12/17 02:58:49;;;;;;;47.78;17.10;;;;;;;;;;4775496;29;20130;-74
2021/12/17 03:01:17;;;;;;;54.65;17.80;;;;;;;;;;4779127;29;20051;-74
2021/12/17 03:03:45;;;;;;;53.60;17.10;;;;;;;;;;4766341;29;20063;-73
2021/12/17 03:06:13;;;;;;;40.35;15.07;;;;;;;;;;4780648;29;20146;-74
2021/12/17 03:08:41;;;;;;;45.55;17.15;;;;;;;;;;4772810;30;20153;-74
2021/12/17 03:11:09;;;;;;;41.55;16.08;;;;;;;;;;4780915;29;20067;-74
2021/12/17 03:13:38;;;;;;;44.28;15.60;;;;;;;;;;4774473;29;20132;-74
2021/12/17 03:16:52;;;;;;;37.80;14.25;;;;;;;;;;4776957;29;20047;-74
2021/12/17 03:23:25;;;;;;;28.52;11.95;;;;;;;;;;4769348;29;20416;-75
2021/12/17 03:24:50;;;;;;;39.72;14.77;;;;;;;;;;4773040;29;20130;-73
2021/12/17 03:27:17;;;;;;;45.40;14.70;;;;;;;;;;4783219;29;20118;-74
2021/12/17 03:29:45;;;;;;;39.38;13.90;;;;;;;;;;4749122;30;20052;-74
2021/12/17 03:32:13;;;;;;;42.53;13.75;;;;;;;;;;4789071;29;20058;-74
2021/12/17 03:34:40;;;;;;;43.13;14.95;;;;;;;;;;4778732;29;20043;-74
2021/12/17 03:37:08;;;;;;;42.35;14.30;;;;;;;;;;4795121;29;20559;-74
2021/12/17 03:39:45;;;;;;;36.88;13.93;;;;;;;;;;4777665;30;20039;-74
2021/12/17 03:42:15;;;;;;;38.85;14.50;;;;;;;;;;4782045;30;20099;-74
2021/12/17 03:44:42;;;;;;;36.95;13.52;;;;;;;;;;4782863;29;20047;-74
2021/12/17 03:47:28;;;;;;;27.42;12.52;;;;;;;;;;4778011;29;20464;-74
2021/12/17 03:50:06;;;;;;;22.52;10.48;;;;;;;;;;4769423;29;20043;-74
2021/12/17 03:52:34;;;;;;;22.15;10.75;;;;;;;;;;4793028;29;20055;-74
2021/12/17 03:55:02;;;;;;;21.13;10.63;;;;;;;;;;4762202;30;20402;-74
2021/12/17 03:57:36;;;;;;;21.13;9.98;;;;;;;;;;4761306;30;20416;-74
2021/12/17 04:00:05;;;;;;;19.42;9.40;;;;;;;;;;4790935;29;20047;-74
2021/12/17 04:02:43;;;;;;;22.08;9.73;;;;;;;;;;4767179;29;20051;-74
2021/12/17 04:05:17;;;;;;;19.55;9.13;;;;;;;;;;4799905;29;20051;-74
2021/12/17 04:08:07;;;;;;;19.45;9.23;;;;;;;;;;4770149;29;20050;-74
2021/12/17 04:10:54;;;;;;;18.25;9.20;;;;;;;;;;4775115;29;20070;-74
2021/12/17 04:16:01;;;;;;;15.60;8.47;;;;;;;;;;4777017;29;20598;-74
2021/12/17 04:18:28;;;;;;;15.35;8.45;;;;;;;;;;4777523;29;20043;-74
2021/12/17 04:20:57;;;;;;;16.30;8.98;;;;;;;;;;4774841;29;20096;-74
2021/12/17 04:23:25;;;;;;;15.70;8.90;;;;;;;;;;4777855;29;20051;-74
2021/12/17 04:25:53;;;;;;;16.02;8.73;;;;;;;;;;4778331;30;20055;-74
2021/12/17 04:28:21;;;;;;;17.52;9.25;;;;;;;;;;4763820;29;20055;-74
2021/12/17 04:30:49;;;;;;;11.43;7.30;;;;;;;;;;4780591;29;20044;-74
2021/12/17 04:33:17;;;;;;;14.23;8.77;;;;;;;;;;4774849;29;20055;-73
2021/12/17 04:35:44;;;;;;;12.90;8.30;;;;;;;;;;4791215;29;20489;-74
2021/12/17 04:38:14;;;;;;;14.65;8.07;;;;;;;;;;4783719;29;20138;-75
2021/12/17 04:40:43;;;;;;;19.08;9.55;;;;;;;;;;4798418;29;20137;-74
2021/12/17 04:43:18;;;;;;;12.48;7.97;;;;;;;;;;4794527;29;20112;-74
2021/12/17 04:46:01;;;;;;;17.90;9.63;;;;;;;;;;4778645;29;20070;-74
2021/12/17 04:59:48;;;;;;;15.88;8.95;;;;;;;;;;4787702;29;20055;-74
2021/12/17 05:02:17;;;;;;;16.77;8.10;;;;;;;;;;4785518;29;20398;-74
2021/12/17 05:04:56;;;;;;;16.70;8.80;;;;;;;;;;4782055;29;20509;-74
2021/12/17 05:07:25;;;;;;;14.35;9.15;;;;;;;;;;4788699;29;20145;-76
2021/12/17 05:10:04;;;;;;;16.15;9.18;;;;;;;;;;4784420;29;20047;-74
2021/12/17 05:18:18;;;;;;;15.20;8.30;;;;;;;;;;4766663;30;20075;-74
2021/12/17 05:20:57;;;;;;;16.50;9.00;;;;;;;;;;4784355;29;20421;-74
2021/12/17 05:23:31;;;;;;;;;;;;;;;;;;4777125;29;20043;-74
2021/12/17 05:26:00;;;;;;;12.45;8.20;;;;;;;;;;4771244;29;21161;-73
2021/12/17 05:28:35;;;;;;;12.32;8.23;;;;;;;;;;4784511;29;20091;-74
2021/12/17 05:31:04;;;;;;;15.70;8.70;;;;;;;;;;4771569;29;20305;-73
2021/12/17 05:33:37;;;;;;;15.63;9.35;;;;;;;;;;4779000;29;20618;-74
2021/12/17 05:36:05;;;;;;;18.75;10.30;;;;;;;;;;4781729;29;20047;-74
2021/12/17 05:38:33;;;;;;;15.65;9.35;;;;;;;;;;4795228;29;20058;-74
2021/12/17 05:41:01;;;;;;;13.93;8.35;;;;;;;;;;4773668;29;20095;-74
2021/12/17 05:43:42;;;;;;;14.25;8.93;;;;;;;;;;4778750;29;20051;-75
2021/12/17 05:46:12;;;;;;;14.80;8.85;;;;;;;;;;4780946;29;20047;-72
2021/12/17 05:48:40;;;;;;;17.30;8.65;;;;;;;;;;4790556;29;20443;-74
2021/12/17 05:51:10;;;;;;;15.13;8.98;;;;;;;;;;4779412;29;20299;-74
2021/12/17 05:53:38;;;;;;;19.75;9.73;;;;;;;;;;4786599;29;20055;-73
2021/12/17 05:56:05;;;;;;;15.43;9.90;;;;;;;;;;4800312;29;20051;-73
2021/12/17 05:58:45;;;;;;;14.88;8.95;;;;;;;;;;4769335;29;20047;-73
2021/12/17 06:01:13;;;;;;;18.58;9.48;;;;;;;;;;4772974;29;20525;-74
2021/12/17 06:03:51;;;;;;;16.70;9.02;;;;;;;;;;4781299;29;20043;-75
2021/12/17 06:06:27;;;;;;;15.57;8.73;;;;;;;;;;4782709;29;20130;-73
2021/12/17 06:09:01;;;;;;;16.45;9.50;;;;;;;;;;4782188;29;20083;-74
2021/12/17 06:11:28;;;;;;;15.40;8.85;;;;;;;;;;4775356;29;20069;-73
2021/12/17 06:13:56;;;;;;;13.70;9.05;;;;;;;;;;4776035;29;20138;-73
2021/12/17 06:16:28;;;;;;;14.15;9.90;;;;;;;;;;4774480;29;20051;-74
2021/12/17 06:18:55;;;;;;;17.23;10.52;;;;;;;;;;4785723;29;20520;-73
2021/12/17 06:21:23;;;;;;;15.77;9.38;;;;;;;;;;4786291;29;20065;-73
2021/12/17 06:23:51;;;;;;;17.63;10.43;;;;;;;;;;4777407;29;20039;-74
2021/12/17 06:26:19;;;;;;;18.15;9.43;;;;;;;;;;4779680;29;20075;-73
2021/12/17 06:28:50;;;;;;;15.93;9.70;;;;;;;;;;4781098;29;20049;-74
2021/12/17 06:31:20;;;;;;;21.15;10.95;;;;;;;;;;4762254;29;20047;-74
2021/12/17 06:33:48;;;;;;;18.80;10.43;;;;;;;;;;4780147;29;20059;-74
2021/12/17 06:36:16;;;;;;;16.92;10.13;;;;;;;;;;4780697;29;20058;-73
2021/12/17 06:38:44;;;;;;;18.63;9.90;;;;;;;;;;4777554;29;20047;-73
2021/12/17 06:41:13;;;;;;;15.80;11.00;;;;;;;;;;4778786;29;20057;-74
2021/12/17 06:43:43;;;;;;;14.18;8.88;;;;;;;;;;4782958;29;20043;-75
2021/12/17 06:46:21;;;;;;;18.40;10.07;;;;;;;;;;4774955;29;20044;-74
2021/12/17 06:48:56;;;;;;;16.98;8.65;;;;;;;;;;4775938;29;20054;-74
2021/12/17 07:24:03;;;;;;;14.35;9.40;;;;;;;;;;4767489;29;20539;-73
2021/12/17 07:32:32;;;;;;;14.25;9.13;;;;;;;;;;4770959;29;20162;-74
2021/12/17 07:40:07;;;;;;;15.80;8.32;;;;;;;;;;4773051;29;20058;-73
2021/12/17 07:42:42;;;;;;;15.07;9.90;;;;;;;;;;4769741;29;20047;-74
2021/12/17 07:45:33;;;;;;;16.88;9.05;;;;;;;;;;4774315;29;20047;-73
2021/12/17 07:48:05;;;;;;;20.33;9.75;;;;;;;;;;4774543;29;20058;-73
2021/12/17 07:50:49;;;;;;;19.30;10.18;;;;;;;;;;4775145;29;20053;-77
2021/12/17 07:53:36;;;;;;;21.38;8.98;;;;;;;;;;4781099;29;20055;-73
2021/12/17 07:56:14;;;;;;;22.67;10.32;;;;;;;;;;4787220;29;20113;-73
2021/12/17 07:58:43;;;;;;;18.48;9.20;;;;;;;;;;4762988;29;20381;-73
2021/12/17 08:01:11;;;;;;;21.67;10.55;;;;;;;;;;4772499;29;20043;-72
2021/12/17 08:03:42;;;;;;;22.23;10.77;;;;;;;;;;4783048;30;20534;-76
2021/12/17 08:06:42;;;;;;;20.92;10.85;;;;;;;;;;4779137;29;20058;-75
2021/12/17 08:09:16;;;;;;;20.27;10.07;;;;;;;;;;4777901;29;20473;-74
2021/12/17 08:11:54;;;;;;;20.77;11.07;;;;;;;;;;4771986;29;20122;-72
2021/12/17 08:14:24;;;;;;;19.13;10.68;;;;;;;;;;4776168;29;20079;-73
2021/12/17 08:17:28;;;;;;;19.17;10.57;;;;;;;;;;4778425;29;20051;-73
2021/12/17 08:25:47;;;;;;;19.00;9.88;;;;;;;;;;4786746;29;20450;-73
2021/12/17 08:28:17;;;;;;;19.50;11.13;;;;;;;;;;4781690;29;20074;-73
2021/12/17 08:30:44;;;;;;;19.30;10.55;;;;;;;;;;4779479;29;20036;-72
2021/12/17 08:33:21;;;;;;;19.67;10.90;;;;;;;;;;4774710;29;20040;-72
2021/12/17 08:35:51;;;;;;;19.70;9.85;;;;;;;;;;4788134;29;20053;-72
2021/12/17 08:38:25;;;;;;;21.65;11.15;;;;;;;;;;4777800;29;20043;-75
2021/12/17 08:40:54;;;;;;;17.23;9.55;;;;;;;;;;4764448;29;20137;-73
2021/12/17 08:43:22;;;;;;;22.00;11.50;;;;;;;;;;4788486;29;20517;-73
2021/12/17 08:45:53;;;;;;;16.02;10.07;;;;;;;;;;4786108;29;20053;-73
2021/12/17 08:48:40;;;;;;;18.52;9.82;;;;;;;;;;4781819;29;20071;-75
2021/12/17 08:51:31;;;;;;;15.05;10.32;;;;;;;;;;4782407;29;20054;-76
2021/12/17 08:53:58;;;;;;;16.33;10.05;;;;;;;;;;4797244;29;20557;-73
2021/12/17 08:56:33;;;;;;;18.17;9.18;;;;;;;;;;4790823;29;20472;-73
2021/12/17 08:59:02;;;;;;;18.95;10.48;;;;;;;;;;4787648;29;20054;-76
2021/12/17 09:01:38;;;;;;;16.10;9.73;;;;;;;;;;4781729;29;20040;-73
2021/12/17 09:04:06;;;;;;;19.27;10.88;;;;;;;;;;4781293;29;20064;-74
2021/12/17 09:06:36;;;;;;;16.88;10.40;;;;;;;;;;4787423;29;20435;-73
2021/12/17 09:09:05;;;;;;;19.23;10.77;;;;;;;;;;4781177;29;20553;-73
2021/12/17 09:11:40;;;;;;;18.10;10.63;;;;;;;;;;4790853;29;20116;-74
2021/12/17 09:14:19;;;;;;;18.73;10.65;;;;;;;;;;4785322;29;20051;-76
2021/12/17 09:16:51;;;;;;;18.33;10.25;;;;;;;;;;4783036;29;20163;-73
2021/12/17 09:19:22;;;;;;;16.17;10.93;;;;;;;;;;4782947;29;20054;-75
2021/12/17 09:21:54;;;;;;;16.25;10.90;;;;;;;;;;4793504;29;20276;-73
2021/12/17 09:24:31;;;;;;;19.77;10.20;;;;;;;;;;4796436;29;20039;-74
2021/12/17 09:27:13;;;;;;;18.05;10.50;;;;;;;;;;4784047;29;20436;-73
2021/12/17 09:30:12;;;;;;;17.40;10.80;;;;;;;;;;4789125;29;20066;-73
2021/12/17 09:32:40;;;;;;;19.60;11.65;;;;;;;;;;4791157;29;20051;-73
2021/12/17 09:35:13;;;;;;;18.15;11.07;;;;;;;;;;4783945;29;20565;-73
2021/12/17 09:37:40;;;;;;;17.35;11.00;;;;;;;;;;4787733;29;20181;-73
2021/12/17 09:40:10;;;;;;;16.92;10.52;;;;;;;;;;4789689;29;20055;-73
2021/12/17 09:42:39;;;;;;;16.20;10.95;;;;;;;;;;4798837;29;20137;-75
2021/12/17 09:45:07;;;;;;;20.95;12.35;;;;;;;;;;4801120;29;20071;-73
2021/12/17 09:47:34;;;;;;;23.10;12.75;;;;;;;;;;4783903;29;20039;-74
2021/12/17 09:50:03;;;;;;;16.60;10.70;;;;;;;;;;4780759;29;20043;-73
2021/12/17 09:52:30;;;;;;;17.15;10.43;;;;;;;;;;4782315;29;20110;-73
2021/12/17 09:54:58;;;;;;;16.10;10.18;;;;;;;;;;4768993;30;20047;-73
2021/12/17 09:57:26;;;;;;;13.60;9.60;;;;;;;;;;4794125;29;20059;-73
2021/12/17 09:59:54;;;;;;;18.30;11.02;;;;;;;;;;4794323;29;20042;-73
2021/12/17 10:02:21;;;;;;;17.15;10.57;;;;;;;;;;4781465;29;20054;-73
2021/12/17 10:04:50;;;;;;;14.68;10.30;;;;;;;;;;4783268;29;20043;-74
2021/12/17 10:07:20;;;;;;;16.55;10.35;;;;;;;;;;4791200;29;20108;-74
2021/12/17 10:09:49;;;;;;;14.57;9.38;;;;;;;;;;4787261;30;20182;-73
2021/12/17 10:12:17;;;;;;;15.25;10.18;;;;;;;;;;4794627;29;20447;-72
2021/12/17 10:14:58;;;;;;;14.77;10.20;;;;;;;;;;4782492;29;20753;-73
2021/12/17 10:17:26;;;;;;;14.93;10.48;;;;;;;;;;4785222;29;20062;-75
2021/12/17 10:19:53;;;;;;;14.57;9.98;;;;;;;;;;4780919;29;20074;-73
2021/12/17 10:22:22;;;;;;;15.45;10.32;;;;;;;;;;4807978;29;20980;-73
2021/12/17 10:25:07;;;;;;;18.33;11.40;;;;;;;;;;4818995;29;20401;-73
2021/12/17 10:27:36;;;;;;;17.38;11.18;;;;;;;;;;4818053;29;20429;-74
2021/12/17 10:30:18;;;;;;;18.70;11.48;;;;;;;;;;4817730;29;20511;-73
2021/12/17 10:32:48;;;;;;;18.05;11.55;;;;;;;;;;4804768;29;20056;-72
2021/12/17 10:35:17;;;;;;;16.73;10.48;;;;;;;;;;4823651;29;20055;-72
2021/12/17 10:37:50;;;;;;;15.75;11.00;;;;;;;;;;4816027;29;20055;-73
2021/12/17 10:40:21;;;;;;;19.05;12.85;;;;;;;;;;4817016;29;20207;-74
2021/12/17 10:42:58;;;;;;;22.00;14.10;;;;;;;;;;4817181;29;20054;-73
2021/12/17 10:45:28;;;;;;;19.58;11.43;;;;;;;;;;4822285;29;22341;-74
2021/12/17 10:48:56;;;;;;;18.67;11.90;;;;;;;;;;4824888;29;20074;-74
2021/12/17 10:51:03;;;;;;;16.58;10.30;;;;;;;;;;4822156;29;20041;-72
2021/12/17 10:53:30;;;;;;;18.40;10.32;;;;;;;;;;4799135;29;20063;-73
2021/12/17 10:55:59;;;;;;;19.02;9.85;;;;;;;;;;4780415;29;20035;-75
2021/12/17 10:58:26;;;;;;;18.75;9.85;;;;;;;;;;4781936;29;20078;-74
2021/12/17 11:01:07;;;;;;;16.80;10.15;;;;;;;;;;4785722;29;20118;-74
2021/12/17 11:03:41;;;;;;;21.60;10.52;;;;;;;;;;4784276;29;20501;-73
2021/12/17 11:06:09;;;;;;;18.27;9.60;;;;;;;;;;4786059;29;20054;-75
2021/12/17 11:08:39;;;;;;;21.20;10.13;;;;;;;;;;4784431;29;20077;-74
2021/12/17 11:11:11;;;;;;;22.30;11.45;;;;;;;;;;4783308;29;20075;-73
2021/12/17 11:13:53;;;;;;;19.48;10.35;;;;;;;;;;4783042;29;20092;-73
2021/12/17 11:16:21;;;;;;;21.53;11.10;;;;;;;;;;4782307;29;20043;-74
2021/12/17 11:18:49;;;;;;;21.30;11.77;;;;;;;;;;4783696;29;20400;-73
2021/12/17 11:21:17;;;;;;;23.20;11.95;;;;;;;;;;4783447;29;20110;-73
2021/12/17 11:23:45;;;;;;;24.88;13.88;;;;;;;;;;4783918;29;20051;-73
2021/12/17 11:26:13;;;;;;;22.13;13.30;;;;;;;;;;4782977;29;20542;-73
2021/12/17 11:28:41;;;;;;;25.13;13.75;;;;;;;;;;4781442;29;20509;-75
2021/12/17 11:31:08;;;;;;;23.35;13.57;;;;;;;;;;4782074;29;20043;-75
2021/12/17 11:33:36;;;;;;;21.77;12.57;;;;;;;;;;4781537;29;20047;-74
2021/12/17 11:36:03;;;;;;;20.52;13.00;;;;;;;;;;4783236;29;20134;-73
2021/12/17 11:38:46;;;;;;;21.70;13.85;;;;;;;;;;4782221;29;20145;-74
2021/12/17 11:41:44;;;;;;;22.92;13.82;;;;;;;;;;4775432;29;20063;-75
2021/12/17 11:44:13;;;;;;;21.85;13.90;;;;;;;;;;4783889;29;20068;-73
2021/12/17 11:46:40;;;;;;;22.00;13.70;;;;;;;;;;4776170;29;20131;-72
2021/12/17 11:49:13;;;;;;;23.15;14.55;;;;;;;;;;4781150;29;20044;-73
2021/12/17 11:51:41;;;;;;;24.15;14.10;;;;;;;;;;4779605;29;20051;-72
2021/12/17 11:54:18;;;;;;;26.92;15.70;;;;;;;;;;4774530;29;20070;-73
2021/12/17 11:56:49;;;;;;;25.67;15.57;;;;;;;;;;4776010;29;20053;-75
2021/12/17 11:59:26;;;;;;;23.88;14.98;;;;;;;;;;4773486;29;20047;-73
2021/12/17 12:02:00;;;;;;;23.30;15.15;;;;;;;;;;4776571;29;20054;-74
2021/12/17 12:04:33;;;;;;;22.90;13.95;;;;;;;;;;4777604;29;20338;-74
2021/12/17 12:07:02;;;;;;;21.60;14.27;;;;;;;;;;4769163;29;20125;-73
2021/12/17 12:09:54;;;;;;;24.15;15.00;;;;;;;;;;4779034;29;20055;-73
2021/12/17 12:12:21;;;;;;;23.35;14.18;;;;;;;;;;4777447;29;20051;-73
2021/12/17 12:14:49;;;;;;;25.35;14.32;;;;;;;;;;4784737;29;20054;-75
2021/12/17 12:17:35;;;;;;;22.15;13.75;;;;;;;;;;4782656;29;20047;-74
2021/12/17 12:20:03;;;;;;;22.13;14.00;;;;;;;;;;4785126;29;20047;-73
2021/12/17 12:22:31;;;;;;;22.40;13.85;;;;;;;;;;4793886;29;20612;-72
2021/12/17 12:25:25;;;;;;;20.90;13.27;;;;;;;;;;4777115;29;20424;-72
2021/12/17 12:27:52;;;;;;;23.98;14.02;;;;;;;;;;4781298;29;20470;-73
2021/12/17 12:30:35;;;;;;;21.58;13.15;;;;;;;;;;4814149;24;20074;-75
2021/12/17 12:33:06;;;;;;;24.40;14.25;;;;;;;;;;4824117;29;20543;-75
2021/12/17 12:35:34;;;;;;;21.10;13.50;;;;;;;;;;4821823;29;20057;-75
2021/12/17 12:38:15;;;;;;;19.10;13.43;;;;;;;;;;4828136;29;20132;-76
2021/12/17 12:40:50;;;;;;;19.77;13.27;;;;;;;;;;4819165;29;20042;-76
2021/12/17 12:43:44;;;;;;;21.85;13.93;;;;;;;;;;4797025;29;20066;-76
2021/12/17 12:46:12;;;;;;;24.80;14.07;;;;;;;;;;4805885;29;20082;-75
2021/12/17 12:48:40;;;;;;;20.05;13.50;;;;;;;;;;4814100;29;20050;-75
2021/12/17 12:51:16;;;;;;;23.42;13.30;;;;;;;;;;4815901;29;20046;-75
2021/12/17 12:54:02;;;;;;;20.08;13.60;;;;;;;;;;4820202;29;20572;-75
2021/12/17 12:56:29;;;;;;;18.85;12.68;;;;;;;;;;4819292;29;20069;-75
2021/12/17 12:58:57;;;;;;;18.48;13.15;;;;;;;;;;4822135;29;20506;-75
2021/12/17 13:01:24;;;;;;;18.90;13.15;;;;;;;;;;4812420;29;20515;-76
2021/12/17 13:03:53;;;;;;;22.73;13.15;;;;;;;;;;4831100;29;20049;-75
2021/12/17 13:06:22;;;;;;;19.52;12.73;;;;;;;;;;4818380;29;20095;-75
2021/12/17 13:08:56;;;;;;;20.23;13.55;;;;;;;;;;4818403;29;20085;-75
2021/12/17 13:11:26;;;;;;;19.25;12.70;;;;;;;;;;4820343;29;20057;-75
2021/12/17 13:13:55;;;;;;;17.58;13.30;;;;;;;;;;4817304;29;20138;-75
2021/12/17 13:16:41;;;;;;;17.50;12.63;;;;;;;;;;4814985;29;20105;-75
2021/12/17 13:22:02;;;;;;;17.98;12.55;;;;;;;;;;4813248;29;20723;-75
2021/12/17 13:24:32;;;;;;;16.58;12.13;;;;;;;;;;4823243;29;20043;-75
2021/12/17 13:27:01;;;;;;;18.88;12.82;;;;;;;;;;4828115;29;20069;-75
2021/12/17 13:29:34;;;;;;;20.15;14.05;;;;;;;;;;4829634;29;20586;-76
2021/12/17 13:32:04;;;;;;;20.38;13.80;;;;;;;;;;4817483;29;20578;-75
2021/12/17 13:34:32;;;;;;;21.65;13.85;;;;;;;;;;4814897;29;20850;-75
2021/12/17 13:36:59;;;;;;;22.45;14.30;;;;;;;;;;4816395;29;21806;-76
2021/12/17 13:39:32;;;;;;;21.17;14.25;;;;;;;;;;4818971;29;20507;-74
2021/12/17 13:41:59;;;;;;;17.00;12.70;;;;;;;;;;4821504;29;20064;-75
2021/12/17 13:44:36;;;;;;;17.50;13.25;;;;;;;;;;4820085;29;20050;-76
2021/12/17 13:47:11;;;;;;;19.38;13.65;;;;;;;;;;4818341;29;20043;-76
2021/12/17 13:49:40;;;;;;;18.40;13.05;;;;;;;;;;4816072;29;20115;-75
2021/12/17 13:52:09;;;;;;;17.20;13.27;;;;;;;;;;4796698;29;20049;-75
2021/12/17 13:54:38;;;;;;;14.85;12.13;;;;;;;;;;4796571;29;20126;-76
2021/12/17 13:57:06;;;;;;;16.27;12.25;;;;;;;;;;4816954;29;20099;-75
2021/12/17 13:59:36;;;;;;;20.55;13.52;;;;;;;;;;4815914;29;20046;-74
2021/12/17 14:02:09;;;;;;;16.90;12.93;;;;;;;;;;4818549;29;20084;-75
2021/12/17 14:04:37;;;;;;;17.00;12.43;;;;;;;;;;4814651;29;20053;-75
2021/12/17 14:07:05;;;;;;;17.23;12.45;;;;;;;;;;4817815;29;20626;-75
2021/12/17 14:09:32;;;;;;;17.42;13.00;;;;;;;;;;4817134;29;20051;-75
2021/12/17 14:12:10;;;;;;;19.95;13.45;;;;;;;;;;4822049;29;20492;-75
2021/12/17 14:14:59;;;;;;;24.65;15.02;;;;;;;;;;4818408;29;20434;-76
2021/12/17 14:17:32;;;;;;;22.60;14.93;;;;;;;;;;4801155;29;20054;-75
2021/12/17 14:20:26;;;;;;;22.52;14.48;;;;;;;;;;4799309;29;20069;-74
2021/12/17 14:22:55;;;;;;;25.48;15.18;;;;;;;;;;4805953;29;20046;-74
2021/12/17 14:25:28;;;;;;;21.85;14.90;;;;;;;;;;4805733;29;20162;-75
2021/12/17 14:27:57;;;;;;;19.55;13.55;;;;;;;;;;4814461;29;20039;-75
2021/12/17 14:30:33;;;;;;;25.10;16.00;;;;;;;;;;4821932;29;20050;-75
2021/12/17 14:33:06;;;;;;;22.55;14.90;;;;;;;;;;4822716;29;20135;-74
2021/12/17 14:35:48;;;;;;;22.42;15.75;;;;;;;;;;4811505;29;20133;-75
2021/12/17 14:38:17;;;;;;;20.45;13.82;;;;;;;;;;4831439;29;20046;-74
2021/12/17 14:40:52;;;;;;;20.58;14.57;;;;;;;;;;4811280;29;20125;-76
2021/12/17 14:43:20;;;;;;;20.92;13.70;;;;;;;;;;4810415;29;20572;-74
2021/12/17 14:45:58;;;;;;;22.45;14.60;;;;;;;;;;4817008;29;20103;-76
2021/12/17 14:48:36;;;;;;;24.73;14.30;;;;;;;;;;4797779;29;20122;-76
2021/12/17 15:02:27;;;;;;;23.73;14.23;;;;;;;;;;4818794;29;20081;-75
2021/12/17 15:04:54;;;;;;;22.48;14.23;;;;;;;;;;4813119;29;20047;-74
2021/12/17 15:07:23;;;;;;;22.70;15.00;;;;;;;;;;4807715;29;20042;-74
2021/12/17 15:09:50;;;;;;;20.95;13.68;;;;;;;;;;4819001;29;20095;-74
2021/12/17 15:15:02;;;;;;;18.88;13.27;;;;;;;;;;4837185;29;20117;-76
2021/12/17 15:17:29;;;;;;;20.98;13.82;;;;;;;;;;4835270;29;20549;-75
2021/12/17 15:20:20;;;;;;;21.73;12.95;;;;;;;;;;4841092;29;20081;-75
2021/12/17 15:22:48;;;;;;;20.23;13.95;;;;;;;;;;4820336;29;20533;-76
2021/12/17 15:25:15;;;;;;;20.25;12.85;;;;;;;;;;4836911;29;20049;-75
2021/12/17 15:27:43;;;;;;;19.10;13.60;;;;;;;;;;4837855;29;20351;-75
2021/12/17 15:30:12;;;;;;;23.27;13.00;;;;;;;;;;4821183;29;20499;-75
2021/12/17 15:32:40;;;;;;;19.65;13.18;;;;;;;;;;4811015;29;20085;-75
2021/12/17 15:35:11;;;;;;;21.60;13.38;;;;;;;;;;4835852;29;20073;-75
2021/12/17 15:37:39;;;;;;;23.10;13.30;;;;;;;;;;4827391;29;20137;-75
2021/12/17 15:40:07;;;;;;;19.63;13.48;;;;;;;;;;4833182;29;20042;-76
2021/12/17 15:42:35;;;;;;;18.55;13.30;;;;;;;;;;4833674;29;20081;-75
2021/12/17 15:45:04;;;;;;;19.00;12.80;;;;;;;;;;4832612;29;20064;-76
2021/12/17 15:47:31;;;;;;;18.98;13.68;;;;;;;;;;4818741;29;20047;-75
2021/12/17 15:49:58;;;;;;;18.17;13.38;;;;;;;;;;4816822;29;20045;-75
2021/12/17 15:52:30;;;;;;;19.42;13.02;;;;;;;;;;4815956;29;20399;-75
2021/12/17 15:54:57;;;;;;;20.65;14.50;;;;;;;;;;4812642;29;20046;-75
2021/12/17 15:57:26;;;;;;;20.48;13.82;;;;;;;;;;4810848;29;20050;-75
2021/12/17 15:59:54;;;;;;;22.73;14.60;;;;;;;;;;4816552;29;20038;-75
2021/12/17 16:02:21;;;;;;;24.48;14.32;;;;;;;;;;4826304;29;20058;-76
2021/12/17 16:04:49;;;;;;;19.50;14.38;;;;;;;;;;4820827;29;20054;-75
2021/12/17 16:07:16;;;;;;;19.38;13.80;;;;;;;;;;4822605;29;20133;-75
2021/12/17 16:18:11;;;;;;;18.00;13.20;;;;;;;;;;4820784;29;20058;-75
2021/12/17 16:23:25;;;;;;;16.75;12.07;;;;;;;;;;4812896;29;20710;-74
2021/12/17 16:25:55;;;;;;;16.83;12.23;;;;;;;;;;4817458;29;20192;-74
2021/12/17 16:28:23;;;;;;;16.17;12.63;;;;;;;;;;4824588;29;20046;-74
2021/12/17 16:30:50;;;;;;;15.93;12.88;;;;;;;;;;4830126;29;20070;-75
2021/12/17 16:33:18;;;;;;;14.75;11.52;;;;;;;;;;4818211;29;20099;-76
2021/12/17 16:35:46;;;;;;;16.05;11.82;;;;;;;;;;4806295;29;20141;-74
2021/12/17 16:38:14;;;;;;;17.85;12.63;;;;;;;;;;4817989;29;20051;-74
2021/12/17 16:40:41;;;;;;;20.42;13.55;;;;;;;;;;4822977;29;20104;-74
2021/12/17 16:43:08;;;;;;;21.25;14.30;;;;;;;;;;4822238;29;20129;-74
2021/12/17 16:45:41;;;;;;;19.35;13.30;;;;;;;;;;4824168;29;20129;-74
2021/12/17 16:48:09;;;;;;;17.50;12.95;;;;;;;;;;4828614;29;20050;-74
2021/12/17 16:50:36;;;;;;;19.83;13.02;;;;;;;;;;4831197;29;20148;-75
2021/12/17 16:53:04;;;;;;;18.63;13.55;;;;;;;;;;4831169;29;20508;-76
2021/12/17 16:55:32;;;;;;;20.55;14.25;;;;;;;;;;4829911;29;20190;-76
2021/12/17 16:57:59;;;;;;;16.45;13.18;;;;;;;;;;4817275;29;20495;-76
2021/12/17 17:00:30;;;;;;;19.15;14.10;;;;;;;;;;4834978;29;20057;-74
2021/12/17 17:02:59;;;;;;;19.10;14.32;;;;;;;;;;4809614;29;20046;-73
2021/12/17 17:05:26;;;;;;;21.85;14.00;;;;;;;;;;4824317;29;20058;-75
2021/12/17 17:07:54;;;;;;;19.50;13.63;;;;;;;;;;4824584;29;20205;-74
2021/12/17 17:10:22;;;;;;;18.00;13.57;;;;;;;;;;4818647;29;20440;-75
2021/12/17 17:12:50;;;;;;;19.88;12.80;;;;;;;;;;4828719;29;20182;-75
2021/12/17 17:15:17;;;;;;;20.42;13.98;;;;;;;;;;4829408;29;20054;-75
2021/12/17 17:17:45;;;;;;;16.52;12.82;;;;;;;;;;4820771;29;20073;-75
2021/12/17 17:20:12;;;;;;;22.95;14.88;;;;;;;;;;4816371;29;20050;-75
2021/12/17 17:22:40;;;;;;;21.55;14.65;;;;;;;;;;4828651;29;20046;-75
2021/12/17 17:25:07;;;;;;;19.85;13.85;;;;;;;;;;4820104;29;20168;-75
2021/12/17 17:27:35;;;;;;;19.10;13.50;;;;;;;;;;4821930;29;20129;-76
2021/12/17 17:30:04;;;;;;;18.92;14.45;;;;;;;;;;4823383;29;20491;-75
2021/12/17 17:32:33;;;;;;;25.95;18.13;;;;;;;;;;4826651;29;20107;-75
2021/12/17 17:35:02;;;;;;;20.77;15.10;;;;;;;;;;4822054;29;20125;-75
2021/12/17 17:37:31;;;;;;;23.35;15.35;;;;;;;;;;4823543;29;20062;-75
2021/12/17 17:40:00;;;;;;;17.17;12.48;;;;;;;;;;4824398;29;20050;-75
2021/12/17 17:42:30;;;;;;;17.52;13.00;;;;;;;;;;4821756;29;20539;-75
2021/12/17 17:44:58;;;;;;;16.95;13.32;;;;;;;;;;4806894;29;20521;-75
2021/12/17 17:47:26;;;;;;;22.65;13.85;;;;;;;;;;4820262;29;20047;-75
2021/12/17 17:49:54;;;;;;;19.27;12.52;;;;;;;;;;4821148;29;20051;-74
2021/12/17 17:52:21;;;;;;;19.95;14.23;;;;;;;;;;4816835;29;20085;-74
2021/12/17 17:54:52;;;;;;;19.65;13.77;;;;;;;;;;4819661;29;20125;-75
2021/12/17 17:57:19;;;;;;;20.55;13.80;;;;;;;;;;4819819;29;20054;-75